createdAt,value
2018-12-17T00:00:44.100Z,56.00
2018-12-17T00:03:15.243Z,56.00
2018-12-17T00:05:46.024Z,56.20
2018-12-17T00:08:16.716Z,56.00
2018-12-17T00:10:47.724Z,56.10
2018-12-17T00:13:18.615Z,56.10
2018-12-17T00:15:49.760Z,56.10
2018-12-17T00:18:21.983Z,56.20
2018-12-17T00:20:52.856Z,56.20
2018-12-17T00:23:23.993Z,56.20
2018-12-17T00:25:54.770Z,56.20
2018-12-17T00:28:25.550Z,56.10
2018-12-17T00:30:56.675Z,56.20
2018-12-17T00:33:27.391Z,56.20
2018-12-17T00:36:00.008Z,57.50
2018-12-17T00:38:30.788Z,57.00
2018-12-17T00:41:01.671Z,56.40
2018-12-17T00:43:33.057Z,56.50
2018-12-17T00:46:03.843Z,56.30
2018-12-17T00:48:34.656Z,56.50
2018-12-17T00:51:06.624Z,56.40
2018-12-17T00:53:37.704Z,56.50
2018-12-17T00:56:08.591Z,56.50
2018-12-17T00:58:39.559Z,56.50
2018-12-17T01:01:10.233Z,56.60
2018-12-17T01:03:40.993Z,56.50
2018-12-17T01:06:11.774Z,56.60
2018-12-17T01:08:42.975Z,56.70
2018-12-17T01:11:13.733Z,56.70
2018-12-17T01:13:44.682Z,56.50
2018-12-17T01:16:15.613Z,56.60
2018-12-17T01:18:46.363Z,56.70
2018-12-17T01:21:17.698Z,56.80
2018-12-17T01:23:49.403Z,56.80
2018-12-17T01:26:23.455Z,56.80
2018-12-17T01:28:54.486Z,56.80
2018-12-17T01:31:25.347Z,56.80
2018-12-17T01:33:56.058Z,56.80
2018-12-17T01:36:27.006Z,56.90
2018-12-17T01:38:57.789Z,56.80
2018-12-17T01:41:28.595Z,56.70
2018-12-17T01:43:59.312Z,56.80
2018-12-17T01:46:30.653Z,56.70
2018-12-17T01:49:01.365Z,56.70
2018-12-17T01:51:32.151Z,56.60
2018-12-17T01:54:02.879Z,56.60
2018-12-17T01:56:33.605Z,56.60
2018-12-17T01:59:04.904Z,56.70
2018-12-17T02:01:35.673Z,56.60
2018-12-17T02:04:06.344Z,56.70
2018-12-17T02:06:37.154Z,56.80
2018-12-17T02:09:09.043Z,56.80
2018-12-17T02:11:39.755Z,56.70
2018-12-17T02:14:10.585Z,56.80
2018-12-17T02:16:41.460Z,56.80
2018-12-17T02:19:12.758Z,56.90
2018-12-17T02:21:43.788Z,56.90
2018-12-17T02:24:15.061Z,57.00
2018-12-17T02:26:45.879Z,57.00
2018-12-17T02:29:16.667Z,56.90
2018-12-17T02:31:47.675Z,57.10
2018-12-17T02:34:18.458Z,57.10
2018-12-17T02:36:49.150Z,57.10
2018-12-17T02:39:19.762Z,57.10
2018-12-17T02:41:50.430Z,57.10
2018-12-17T02:44:21.923Z,56.90
2018-12-17T02:46:53.024Z,57.00
2018-12-17T02:49:24.265Z,57.20
2018-12-17T02:51:55.202Z,57.40
2018-12-17T02:54:26.247Z,57.20
2018-12-17T02:56:57.479Z,57.30
2018-12-17T02:59:29.148Z,57.30
2018-12-17T03:01:59.826Z,57.60
2018-12-17T03:04:30.552Z,57.60
2018-12-17T03:07:01.359Z,57.50
2018-12-17T03:09:32.216Z,57.50
2018-12-17T03:12:03.023Z,57.50
2018-12-17T03:14:34.877Z,56.90
2018-12-17T03:17:05.913Z,57.40
2018-12-17T03:19:38.167Z,57.40
2018-12-17T03:22:08.830Z,57.50
2018-12-17T03:24:39.668Z,57.50
2018-12-17T03:27:10.492Z,57.40
2018-12-17T03:29:41.183Z,57.50
2018-12-17T03:32:11.884Z,57.50
2018-12-17T03:34:42.899Z,57.60
2018-12-17T03:37:13.562Z,57.50
2018-12-17T03:39:44.262Z,57.60
2018-12-17T03:42:14.939Z,57.60
2018-12-17T03:44:45.606Z,57.60
2018-12-17T03:47:16.306Z,57.60
2018-12-17T03:49:47.604Z,57.70
2018-12-17T03:52:19.090Z,57.70
2018-12-17T03:54:50.069Z,57.70
2018-12-17T03:57:21.127Z,57.70
2018-12-17T03:59:51.802Z,57.80
2018-12-17T04:02:22.825Z,57.90
2018-12-17T04:04:54.208Z,57.80
2018-12-17T04:07:26.375Z,58.00
2018-12-17T04:09:57.397Z,58.00
2018-12-17T04:12:28.038Z,58.00
2018-12-17T04:14:58.780Z,58.00
2018-12-17T04:17:29.441Z,58.20
2018-12-17T04:20:00.142Z,58.10
2018-12-17T04:22:30.820Z,58.20
2018-12-17T04:25:01.699Z,58.30
2018-12-17T04:27:32.635Z,58.20
2018-12-17T04:30:03.972Z,58.30
2018-12-17T04:32:34.695Z,58.30
2018-12-17T04:35:06.622Z,58.20
2018-12-17T04:37:37.391Z,58.40
2018-12-17T04:40:08.514Z,58.30
2018-12-17T04:42:39.376Z,58.20
2018-12-17T04:45:10.048Z,58.20
2018-12-17T04:47:42.215Z,58.20
2018-12-17T04:50:13.140Z,58.20
2018-12-17T04:52:43.895Z,58.40
2018-12-17T04:55:15.333Z,58.20
2018-12-17T04:57:46.917Z,58.20
2018-12-17T05:00:18.216Z,58.20
2018-12-17T05:02:49.033Z,58.30
2018-12-17T05:05:19.889Z,58.10
2018-12-17T05:07:50.793Z,58.20
2018-12-17T05:10:21.707Z,58.10
2018-12-17T05:12:52.726Z,58.20
2018-12-17T05:15:23.564Z,58.10
2018-12-17T05:17:54.546Z,58.10
2018-12-17T05:20:25.494Z,58.00
2018-12-17T05:22:56.166Z,58.20
2018-12-17T05:25:27.007Z,58.10
2018-12-17T05:27:57.820Z,58.20
2018-12-17T05:30:28.536Z,58.20
2018-12-17T05:33:00.073Z,58.20
2018-12-17T05:35:30.979Z,58.30
2018-12-17T05:38:01.582Z,58.40
2018-12-17T05:40:32.404Z,58.30
2018-12-17T05:43:04.092Z,58.50
2018-12-17T05:45:34.914Z,58.50
2018-12-17T05:48:05.921Z,58.80
2018-12-17T05:50:37.423Z,58.50
2018-12-17T05:53:08.228Z,58.60
2018-12-17T05:55:39.032Z,58.70
2018-12-17T05:58:09.645Z,58.70
2018-12-17T06:00:40.367Z,58.80
2018-12-17T06:03:11.103Z,57.90
2018-12-17T06:05:42.311Z,58.60
2018-12-17T06:08:13.644Z,58.70
2018-12-17T06:10:44.361Z,58.70
2018-12-17T06:13:15.156Z,58.70
2018-12-17T06:15:46.126Z,58.80
2018-12-17T06:18:18.373Z,58.70
2018-12-17T06:20:49.700Z,58.90
2018-12-17T06:23:20.414Z,59.00
2018-12-17T06:25:51.152Z,59.00
2018-12-17T06:28:21.856Z,59.10
2018-12-17T06:30:52.842Z,59.00
2018-12-17T06:33:23.542Z,59.10
2018-12-17T06:35:54.341Z,59.00
2018-12-17T06:38:25.103Z,59.10
2018-12-17T06:40:55.791Z,59.20
2018-12-17T06:43:26.845Z,59.30
2018-12-17T06:45:57.787Z,59.20
2018-12-17T06:48:28.835Z,59.30
2018-12-17T06:51:00.009Z,59.40
2018-12-17T06:53:30.723Z,59.40
2018-12-17T06:56:01.407Z,59.20
2018-12-17T06:58:32.408Z,59.30
2018-12-17T07:01:03.244Z,59.40
2018-12-17T07:03:34.175Z,59.50
2018-12-17T07:06:05.426Z,59.60
2018-12-17T07:08:36.299Z,59.70
2018-12-17T07:11:07.451Z,59.70
2018-12-17T07:13:38.170Z,59.70
2018-12-17T07:16:09.524Z,59.90
2018-12-17T07:18:40.317Z,59.90
2018-12-17T07:21:11.034Z,60.00
2018-12-17T07:23:42.224Z,59.90
2018-12-17T07:26:13.058Z,59.90
2018-12-17T07:28:44.512Z,59.90
2018-12-17T07:31:15.549Z,60.20
2018-12-17T07:33:53.022Z,60.30
2018-12-17T07:36:23.838Z,60.30
2018-12-17T07:38:54.904Z,60.30
2018-12-17T07:41:26.031Z,61.70
2018-12-17T07:43:56.804Z,60.50
2018-12-17T07:46:28.770Z,60.50
2018-12-17T07:48:59.598Z,60.60
2018-12-17T07:51:30.427Z,60.50
2018-12-17T07:54:01.239Z,60.50
2018-12-17T07:56:32.125Z,60.50
2018-12-17T07:59:03.362Z,60.50
2018-12-17T08:01:35.052Z,60.80
2018-12-17T08:04:05.931Z,60.70
2018-12-17T08:06:36.724Z,60.60
2018-12-17T08:09:09.580Z,60.90
2018-12-17T08:11:40.632Z,60.90
2018-12-17T08:14:11.450Z,60.80
2018-12-17T08:16:43.425Z,60.50
2018-12-17T08:19:15.550Z,60.80
2018-12-17T08:21:46.226Z,61.80
2018-12-17T08:24:17.026Z,60.80
2018-12-17T08:26:49.634Z,60.90
2018-12-17T08:29:20.368Z,60.90
2018-12-17T08:31:51.183Z,60.90
2018-12-17T08:34:22.040Z,60.90
2018-12-17T08:36:53.175Z,61.10
2018-12-17T08:39:24.261Z,61.20
2018-12-17T08:41:55.442Z,61.30
2018-12-17T08:44:26.626Z,61.40
2018-12-17T08:46:57.396Z,61.10
2018-12-17T08:49:28.437Z,61.10
2018-12-17T08:51:59.376Z,61.00
2018-12-17T08:54:30.151Z,61.20
2018-12-17T08:57:01.466Z,61.30
2018-12-17T08:59:32.579Z,61.40
2018-12-17T09:02:03.865Z,61.60
2018-12-17T09:04:34.657Z,61.70
2018-12-17T09:07:05.522Z,61.90
2018-12-17T09:09:36.224Z,61.70
2018-12-17T09:12:07.463Z,62.00
2018-12-17T09:14:38.370Z,61.60
2018-12-17T09:17:09.665Z,61.60
2018-12-17T09:19:40.431Z,61.40
2018-12-17T09:22:11.257Z,61.50
2018-12-17T09:24:42.045Z,61.60
2018-12-17T09:27:13.961Z,61.40
2018-12-17T09:29:44.743Z,61.50
2018-12-17T09:32:15.521Z,61.70
2018-12-17T09:34:46.503Z,61.80
2018-12-17T09:37:17.424Z,61.90
2018-12-17T09:39:48.106Z,61.90
2018-12-17T09:42:19.127Z,62.10
2018-12-17T09:44:50.190Z,62.00
2018-12-17T09:47:21.662Z,62.10
2018-12-17T09:49:52.528Z,62.10
2018-12-17T09:52:23.358Z,62.70
2018-12-17T09:57:34.157Z,62.40
2018-12-17T10:00:06.958Z,62.50
2018-12-17T10:02:37.688Z,62.20
2018-12-17T10:05:10.391Z,62.20
2018-12-17T10:07:41.307Z,62.20
2018-12-17T10:10:12.582Z,62.20
2018-12-17T10:12:43.352Z,62.20
2018-12-17T10:15:14.431Z,62.00
2018-12-17T10:17:45.532Z,62.10
2018-12-17T10:20:16.414Z,62.10
2018-12-17T10:22:47.152Z,62.20
2018-12-17T10:25:18.311Z,62.30
2018-12-17T10:27:49.279Z,62.20
2018-12-17T10:30:20.022Z,62.10
2018-12-17T10:32:50.807Z,62.00
2018-12-17T10:35:21.788Z,61.90
2018-12-17T10:37:52.673Z,62.00
2018-12-17T10:40:23.791Z,62.10
2018-12-17T10:42:54.678Z,62.30
2018-12-17T10:45:25.667Z,62.30
2018-12-17T10:47:56.460Z,62.30
2018-12-17T10:50:27.277Z,62.40
2018-12-17T10:52:57.996Z,62.50
2018-12-17T10:55:28.743Z,62.60
2018-12-17T10:58:00.263Z,62.50
2018-12-17T11:01:35.318Z,62.60
2018-12-17T11:04:13.817Z,62.00
2018-12-17T11:06:45.458Z,63.10
2018-12-17T11:09:16.175Z,62.80
2018-12-17T11:11:47.215Z,63.00
2018-12-17T11:14:18.013Z,63.00
2018-12-17T11:16:48.907Z,63.00
2018-12-17T11:19:20.001Z,62.90
2018-12-17T11:21:51.949Z,62.90
2018-12-17T11:24:23.703Z,63.00
2018-12-17T11:26:54.561Z,62.80
2018-12-17T11:29:25.633Z,62.90
2018-12-17T11:31:57.488Z,62.90
2018-12-17T11:34:28.260Z,62.90
2018-12-17T11:36:59.577Z,62.90
2018-12-17T11:39:30.467Z,62.90
2018-12-17T11:42:01.346Z,63.10
2018-12-17T11:44:32.248Z,63.10
2018-12-17T11:47:03.098Z,63.10
2018-12-17T11:49:33.772Z,63.10
2018-12-17T11:52:04.750Z,63.00
2018-12-17T11:54:36.169Z,62.90
2018-12-17T11:58:13.222Z,63.00
2018-12-17T12:00:55.079Z,62.90
2018-12-17T12:03:26.870Z,62.80
2018-12-17T12:05:57.655Z,62.90
2018-12-17T12:08:28.438Z,62.90
2018-12-17T12:10:59.286Z,63.00
2018-12-17T12:13:30.249Z,63.10
2018-12-17T12:16:00.951Z,63.30
2018-12-17T12:18:31.866Z,63.10
2018-12-17T12:21:03.256Z,62.00
2018-12-17T12:23:34.535Z,62.00
2018-12-17T12:26:05.653Z,63.10
2018-12-17T12:28:36.769Z,62.20
2018-12-17T12:31:07.714Z,62.00
2018-12-17T12:33:38.648Z,62.10
2018-12-17T12:36:09.534Z,63.30
2018-12-17T12:38:40.268Z,63.30
2018-12-17T12:41:10.944Z,63.40
2018-12-17T12:43:42.411Z,63.30
2018-12-17T12:46:13.698Z,63.30
2018-12-17T12:48:44.703Z,62.30
2018-12-17T12:51:15.553Z,62.20
2018-12-17T12:53:46.568Z,62.80
2018-12-17T12:56:17.371Z,63.30
2018-12-17T12:58:48.153Z,63.40
2018-12-17T13:01:20.012Z,63.30
2018-12-17T13:03:50.696Z,63.40
2018-12-17T13:06:21.535Z,63.40
2018-12-17T13:08:52.490Z,63.40
2018-12-17T13:11:23.384Z,63.40
2018-12-17T13:13:54.231Z,63.40
2018-12-17T13:16:25.085Z,63.50
2018-12-17T13:18:56.000Z,63.40
2018-12-17T13:21:26.974Z,63.50
2018-12-17T13:23:58.254Z,63.50
2018-12-17T13:26:29.181Z,63.60
2018-12-17T13:29:00.066Z,63.70
2018-12-17T13:31:30.808Z,63.60
2018-12-17T13:34:01.766Z,63.60
2018-12-17T13:36:32.736Z,63.30
2018-12-17T13:39:05.162Z,63.90
2018-12-17T13:41:36.161Z,64.00
2018-12-17T13:44:07.064Z,64.00
2018-12-17T13:46:38.075Z,64.00
2018-12-17T13:49:08.982Z,64.10
2018-12-17T13:51:43.891Z,63.90
2018-12-17T13:54:15.496Z,64.00
2018-12-17T13:56:46.260Z,64.00
2018-12-17T13:59:17.174Z,62.90
2018-12-17T14:01:51.611Z,64.20
2018-12-17T14:04:21.442Z,64.10
2018-12-17T14:06:52.474Z,62.90
2018-12-17T14:09:25.444Z,62.90
2018-12-17T14:11:56.383Z,62.70
2018-12-17T14:14:28.017Z,63.70
2018-12-17T14:17:03.944Z,62.90
2018-12-17T14:19:34.707Z,62.80
2018-12-17T14:22:08.566Z,62.90
2018-12-17T14:24:39.323Z,62.80
2018-12-17T14:27:10.880Z,62.80
2018-12-17T14:29:41.826Z,62.90
2018-12-17T14:32:12.913Z,62.90
2018-12-17T14:34:43.964Z,62.80
2018-12-17T14:37:14.846Z,63.00
2018-12-17T14:39:45.719Z,63.20
2018-12-17T14:42:16.526Z,62.90
2018-12-17T14:44:47.810Z,62.90
2018-12-17T14:47:18.621Z,63.00
2018-12-17T14:49:49.696Z,62.90
2018-12-17T14:52:20.947Z,62.90
2018-12-17T14:54:51.797Z,63.00
2018-12-17T14:57:22.753Z,63.00
2018-12-17T14:59:53.798Z,63.30
2018-12-17T15:10:06.580Z,62.90
2018-12-17T15:12:37.396Z,64.70
2018-12-17T15:15:11.095Z,64.30
2018-12-17T15:17:41.964Z,64.00
2018-12-17T15:20:13.916Z,63.70
2018-12-17T15:22:44.817Z,63.40
2018-12-17T15:25:15.831Z,63.30
2018-12-17T15:27:47.051Z,63.30
2018-12-17T15:30:18.293Z,63.20
2018-12-17T15:32:49.454Z,63.20
2018-12-17T15:35:20.965Z,64.00
2018-12-17T15:37:51.820Z,63.80
2018-12-17T15:40:22.730Z,63.50
2018-12-17T15:42:54.289Z,63.30
2018-12-17T15:45:25.080Z,63.20
2018-12-17T15:47:56.992Z,63.80
2018-12-17T15:50:27.896Z,63.00
2018-12-17T15:52:58.746Z,62.80
2018-12-17T15:55:29.504Z,62.70
2018-12-17T15:58:00.459Z,62.80
2018-12-17T16:00:31.160Z,63.60
2018-12-17T16:03:02.208Z,62.70
2018-12-17T16:05:33.490Z,62.70
2018-12-17T16:08:04.483Z,62.60
2018-12-17T16:10:36.817Z,62.60
2018-12-17T16:13:07.759Z,63.10
2018-12-17T16:15:38.616Z,63.20
2018-12-17T16:18:09.357Z,63.30
2018-12-17T16:20:41.416Z,63.10
2018-12-17T16:23:12.491Z,63.20
2018-12-17T16:25:43.808Z,63.10
2018-12-17T16:28:14.517Z,63.10
2018-12-17T16:30:46.735Z,63.70
2018-12-17T16:33:17.612Z,63.10
2018-12-17T16:35:48.574Z,62.90
2018-12-17T16:38:19.369Z,62.90
2018-12-17T16:40:50.539Z,62.80
2018-12-17T16:43:21.443Z,62.80
2018-12-17T16:45:52.339Z,62.80
2018-12-17T16:48:23.248Z,62.70
2018-12-17T16:50:54.431Z,62.70
2018-12-17T16:53:25.435Z,62.60
2018-12-17T16:55:56.175Z,62.50
2018-12-17T16:58:27.676Z,62.70
2018-12-17T17:00:58.520Z,62.20
2018-12-17T17:03:29.518Z,62.20
2018-12-17T17:06:00.331Z,62.10
2018-12-17T17:08:31.242Z,62.10
2018-12-17T17:11:02.043Z,61.90
2018-12-17T17:13:32.929Z,61.80
2018-12-17T17:16:04.602Z,63.10
2018-12-17T17:18:35.413Z,63.00
2018-12-17T17:21:06.356Z,63.00
2018-12-17T17:23:37.232Z,62.80
2018-12-17T17:26:08.078Z,63.00
2018-12-17T17:28:39.161Z,64.00
2018-12-17T17:31:10.279Z,63.10
2018-12-17T17:33:41.380Z,63.10
2018-12-17T17:36:12.377Z,62.70
2018-12-17T17:38:43.688Z,63.20
2018-12-17T17:41:14.720Z,63.10
2018-12-17T17:43:45.502Z,63.20
2018-12-17T17:46:16.420Z,63.20
2018-12-17T17:48:47.856Z,63.20
2018-12-17T17:51:18.609Z,63.30
2018-12-17T17:53:49.579Z,63.30
2018-12-17T17:56:20.676Z,63.30
2018-12-17T17:58:51.850Z,63.30
2018-12-17T18:01:22.845Z,63.20
2018-12-17T18:03:53.994Z,63.30
2018-12-17T18:06:25.411Z,63.40
2018-12-17T18:08:56.441Z,63.40
2018-12-17T18:11:27.323Z,63.40
2018-12-17T18:13:58.309Z,63.40
2018-12-17T18:16:29.351Z,63.50
2018-12-17T18:19:00.298Z,63.60
2018-12-17T18:21:31.464Z,63.60
2018-12-17T18:24:02.785Z,63.60
2018-12-17T18:26:33.896Z,63.60
2018-12-17T18:29:05.204Z,63.60
2018-12-17T18:31:36.215Z,63.50
2018-12-17T18:34:07.528Z,63.50
2018-12-17T18:36:38.453Z,63.50
2018-12-17T18:39:10.820Z,63.60
2018-12-17T18:41:41.780Z,63.70
2018-12-17T18:44:12.615Z,63.80
2018-12-17T18:46:43.623Z,63.80
2018-12-17T18:49:14.518Z,63.70
2018-12-17T18:51:45.749Z,63.80
2018-12-17T18:54:17.226Z,63.90
2018-12-17T18:56:48.236Z,64.00
2018-12-17T18:59:19.064Z,64.00
2018-12-17T19:01:50.150Z,64.20
2018-12-17T19:04:21.017Z,64.40
2018-12-17T19:06:52.735Z,64.60
2018-12-17T19:09:23.610Z,64.70
2018-12-17T19:11:54.559Z,64.80
2018-12-17T19:14:26.646Z,64.60
2018-12-17T19:16:58.048Z,64.70
2018-12-17T19:19:29.418Z,64.70
2018-12-17T19:22:00.261Z,64.70
2018-12-17T19:24:31.141Z,64.80
2018-12-17T19:27:02.672Z,64.80
2018-12-17T19:29:34.370Z,64.80
2018-12-17T19:32:05.701Z,65.00
2018-12-17T19:34:36.821Z,64.90
2018-12-17T19:37:07.826Z,64.90
2018-12-17T19:39:38.734Z,64.80
2018-12-17T19:42:09.696Z,64.80
2018-12-17T19:44:40.471Z,64.80
2018-12-17T19:47:11.501Z,64.60
2018-12-17T19:49:42.210Z,64.50
2018-12-17T19:52:13.175Z,64.30
2018-12-17T19:54:44.223Z,64.60
2018-12-17T19:57:15.043Z,64.10
2018-12-17T19:59:46.191Z,64.00
2018-12-17T20:02:17.007Z,63.90
2018-12-17T20:04:47.818Z,63.80
2018-12-17T20:07:18.786Z,63.80
2018-12-17T20:09:50.140Z,63.70
2018-12-17T20:12:21.012Z,63.70
2018-12-17T20:14:52.022Z,63.80
2018-12-17T20:17:22.829Z,63.80
2018-12-17T20:19:53.628Z,63.70
2018-12-17T20:22:24.516Z,64.60
2018-12-17T20:24:55.516Z,63.90
2018-12-17T20:27:26.343Z,64.00
2018-12-17T20:29:57.683Z,63.90
2018-12-17T20:32:28.392Z,64.10
2018-12-17T20:35:00.510Z,64.10
2018-12-17T20:37:31.894Z,63.90
2018-12-17T20:40:02.665Z,64.10
2018-12-17T20:42:34.231Z,64.10
2018-12-17T20:45:08.179Z,64.20
2018-12-17T20:47:39.012Z,64.40
2018-12-17T20:50:10.997Z,64.70
2018-12-17T20:52:42.965Z,64.80
2018-12-17T20:55:14.027Z,64.90
2018-12-17T20:57:45.033Z,65.00
2018-12-17T21:00:16.414Z,64.90
2018-12-17T21:02:48.622Z,65.10
2018-12-17T21:05:19.635Z,65.00
2018-12-17T21:07:50.504Z,65.10
2018-12-17T21:10:21.495Z,65.10
2018-12-17T21:12:52.206Z,65.10
2018-12-17T21:15:23.463Z,65.00
2018-12-17T21:17:54.527Z,65.00
2018-12-17T21:20:25.525Z,65.00
2018-12-17T21:22:57.687Z,65.10
2018-12-17T21:25:28.450Z,64.80
2018-12-17T21:27:59.233Z,64.70
2018-12-17T21:30:30.040Z,64.70
2018-12-17T21:33:06.599Z,64.90
2018-12-17T21:35:33.837Z,64.80
2018-12-17T21:38:05.309Z,64.80
2018-12-17T21:40:36.146Z,64.40
2018-12-17T21:43:08.661Z,64.80
2018-12-17T21:45:39.773Z,64.90
2018-12-17T21:48:10.671Z,64.60
2018-12-17T21:50:41.941Z,64.60
2018-12-17T21:53:12.900Z,64.70
2018-12-17T21:55:43.870Z,64.60
2018-12-17T21:58:14.638Z,64.60
2018-12-17T22:00:45.506Z,64.60
2018-12-17T22:03:16.408Z,64.50
2018-12-17T22:05:48.184Z,64.40
2018-12-17T22:08:19.089Z,64.50
2018-12-17T22:10:50.228Z,64.30
2018-12-17T22:13:21.257Z,64.40
2018-12-17T22:15:52.205Z,64.40
2018-12-17T22:18:23.216Z,64.60
2018-12-17T22:20:54.175Z,64.60
2018-12-17T22:23:25.914Z,64.60
2018-12-17T22:25:56.800Z,64.50
2018-12-17T22:28:28.022Z,64.60
2018-12-17T22:30:58.827Z,64.80
2018-12-17T22:33:29.674Z,64.70
2018-12-17T22:36:00.744Z,64.90
2018-12-17T22:38:31.987Z,65.00
2018-12-17T22:41:02.937Z,65.20
2018-12-17T22:43:33.835Z,65.50
2018-12-17T22:46:04.625Z,65.50
2018-12-17T22:48:35.518Z,65.50
2018-12-17T22:51:06.523Z,65.60
2018-12-17T22:53:37.386Z,65.60
2018-12-17T22:56:08.439Z,65.60
2018-12-17T22:58:42.278Z,65.70
2018-12-17T23:01:12.929Z,65.60
2018-12-17T23:03:43.728Z,65.50
2018-12-17T23:06:14.675Z,65.50
2018-12-17T23:09:16.398Z,66.10
2018-12-17T23:12:09.574Z,65.50
2018-12-17T23:14:57.117Z,65.30
2018-12-17T23:17:42.521Z,65.30
2018-12-17T23:20:14.000Z,66.20
2018-12-17T23:22:46.692Z,65.30
2018-12-17T23:25:17.644Z,65.30
2018-12-17T23:27:51.641Z,65.40
2018-12-17T23:30:24.511Z,65.40
2018-12-17T23:32:57.899Z,65.50
2018-12-17T23:35:29.247Z,65.40
2018-12-17T23:38:00.530Z,65.20
2018-12-17T23:40:31.245Z,65.20
2018-12-17T23:43:02.022Z,65.30
2018-12-17T23:45:32.857Z,65.20
2018-12-17T23:48:04.233Z,65.30
2018-12-17T23:50:35.161Z,65.30
2018-12-17T23:53:06.219Z,65.00
2018-12-17T23:55:37.085Z,65.10
2018-12-17T23:58:08.442Z,65.10
